Time;durP1;ratioP1;P1;durP2;ratioP2;P2;SDS_P1;SDS_P2;PMS_P1;PMS_P2;Temp;Humidity;BMP_temperature;BMP_pressure;BME280_temperature;BME280_humidity;BME280_pressure;Samples;Min_cycle;Max_cycle;Signal;HPM_P1;HPM_P2
2023/12/15 00:02:04;;;;;;;;;;;4.20;99.90;;;;;;5026031;28;19967;-70
2023/12/15 00:04:30;;;;;;;;;;;4.20;99.90;;;;;;5035329;28;20035;-69
2023/12/15 00:06:55;;;;;;;;;;;4.20;99.90;;;;;;5034849;28;20054;-70
2023/12/15 00:09:23;;;;;;;;;;;4.00;99.90;;;;;;5034401;28;19967;-70
2023/12/15 00:11:49;;;;;;;;;;;3.90;99.90;;;;;;5030157;28;19970;-70
2023/12/15 00:14:14;;;;;;;;;;;3.90;99.90;;;;;;5036776;28;19946;-69
2023/12/15 00:16:39;;;;;;;;;;;3.90;99.90;;;;;;5032418;28;20505;-70
2023/12/15 00:19:05;;;;;;;;;;;3.70;99.90;;;;;;5035487;28;19951;-70
2023/12/15 00:21:30;;;;;;;;;;;3.60;99.90;;;;;;5035460;28;20343;-70
2023/12/15 00:23:56;;;;;;;;;;;3.30;99.90;;;;;;5033561;28;19943;-69
2023/12/15 00:26:21;;;;;;;;;;;3.20;99.90;;;;;;5035716;28;19970;-70
2023/12/15 00:28:47;;;;;;;;;;;3.30;99.90;;;;;;5028361;28;20004;-70
2023/12/15 00:31:12;;;;;;;;;;;3.50;99.90;;;;;;5027916;28;20004;-66
2023/12/15 00:33:38;;;;;;;;;;;3.50;99.90;;;;;;5036848;28;19985;-66
2023/12/15 00:36:04;;;;;;;;;;;3.60;99.90;;;;;;5032467;28;20511;-66
2023/12/15 00:38:29;;;;;;;;;;;3.60;99.90;;;;;;5032600;28;19951;-66
2023/12/15 00:40:54;;;;;;;;;;;3.60;99.90;;;;;;5032982;28;19944;-65
2023/12/15 00:43:20;;;;;;;;;;;3.50;99.90;;;;;;5033445;28;20171;-65
2023/12/15 00:45:45;;;;;;;;;;;3.50;99.90;;;;;;5031581;28;20008;-65
2023/12/15 00:48:11;;;;;;;;;;;3.60;99.90;;;;;;5030567;28;19948;-65
2023/12/15 00:50:36;;;;;;;;;;;3.50;99.90;;;;;;5034185;28;19952;-65
2023/12/15 00:53:02;;;;;;;;;;;3.50;99.90;;;;;;5033748;28;19948;-65
2023/12/15 00:55:27;;;;;;;;;;;3.40;99.90;;;;;;5029948;28;20504;-65
2023/12/15 00:57:53;;;;;;;;;;;3.30;99.90;;;;;;5021385;28;19947;-64
2023/12/15 01:00:18;;;;;;;;;;;3.40;99.90;;;;;;5028290;28;19952;-64
2023/12/15 01:02:44;;;;;;;;;;;3.50;99.90;;;;;;5031864;28;19982;-65
2023/12/15 01:05:10;;;;;;;;;;;3.50;99.90;;;;;;5030980;28;19971;-65
2023/12/15 01:07:35;;;;;;;;;;;3.40;99.90;;;;;;5031158;28;20068;-65
2023/12/15 01:10:01;;;;;;;;;;;3.40;99.90;;;;;;5033412;28;20508;-65
2023/12/15 01:12:26;;;;;;;;;;;3.30;99.90;;;;;;5037842;28;19991;-66
2023/12/15 01:14:52;;;;;;;;;;;3.20;99.90;;;;;;5031315;28;19937;-66
2023/12/15 01:17:17;;;;;;;;;;;3.20;99.90;;;;;;5025381;28;20461;-66
2023/12/15 01:19:43;;;;;;;;;;;3.20;99.90;;;;;;5034929;28;19946;-66
2023/12/15 01:22:08;;;;;;;;;;;3.20;99.90;;;;;;5014187;28;20824;-66
2023/12/15 01:24:34;;;;;;;;;;;3.20;99.90;;;;;;5014484;28;19992;-66
2023/12/15 01:26:59;;;;;;;;;;;3.40;99.90;;;;;;5025135;28;19987;-66
2023/12/15 01:29:25;;;;;;;;;;;3.40;99.90;;;;;;5028011;28;19940;-66
2023/12/15 01:31:50;;;;;;;;;;;3.40;99.90;;;;;;5029832;28;19950;-66
2023/12/15 01:34:16;;;;;;;;;;;3.40;99.90;;;;;;5009118;28;20007;-66
2023/12/15 01:36:41;;;;;;;;;;;3.30;99.90;;;;;;5022970;28;19936;-67
2023/12/15 01:39:07;;;;;;;;;;;3.30;99.90;;;;;;5033128;28;20008;-66
2023/12/15 01:41:32;;;;;;;;;;;3.50;99.90;;;;;;5028642;28;20028;-65
2023/12/15 01:43:58;;;;;;;;;;;3.50;99.90;;;;;;5032168;28;20621;-65
2023/12/15 01:46:23;;;;;;;;;;;3.50;99.90;;;;;;5031811;28;19972;-66
2023/12/15 01:48:49;;;;;;;;;;;3.60;99.90;;;;;;5028619;28;20683;-65
2023/12/15 01:51:14;;;;;;;;;;;3.70;99.90;;;;;;5031187;28;20025;-65
2023/12/15 01:53:40;;;;;;;;;;;3.80;99.90;;;;;;5034350;28;19955;-66
2023/12/15 01:56:07;;;;;;;;;;;4.00;99.90;;;;;;5032714;28;19939;-66
2023/12/15 01:58:33;;;;;;;;;;;4.10;99.90;;;;;;5026763;28;19957;-65
2023/12/15 02:00:58;;;;;;;;;;;4.10;99.90;;;;;;5027426;28;19949;-65
2023/12/15 02:03:24;;;;;;;;;;;4.20;99.90;;;;;;5030651;28;20602;-65
2023/12/15 02:05:49;;;;;;;;;;;4.30;99.90;;;;;;5028357;28;20060;-66
2023/12/15 02:08:15;;;;;;;;;;;4.40;99.90;;;;;;5029436;28;19937;-66
2023/12/15 02:10:40;;;;;;;;;;;4.40;99.90;;;;;;5027717;28;19948;-66
2023/12/15 02:13:06;;;;;;;;;;;4.40;99.90;;;;;;5033159;28;20185;-66
2023/12/15 02:15:32;;;;;;;;;;;4.60;99.90;;;;;;5031067;28;20030;-66
2023/12/15 02:17:57;;;;;;;;;;;4.50;99.90;;;;;;5026945;28;20009;-66
2023/12/15 02:20:23;;;;;;;;;;;4.50;99.90;;;;;;5026599;28;20620;-66
2023/12/15 02:22:48;;;;;;;;;;;4.50;99.90;;;;;;5026050;28;20026;-71
2023/12/15 02:25:14;;;;;;;;;;;4.50;99.90;;;;;;5027584;28;20065;-71
2023/12/15 02:27:40;;;;;;;;;;;4.50;99.90;;;;;;5026650;28;19982;-71
2023/12/15 02:30:06;;;;;;;;;;;4.50;99.90;;;;;;5029504;28;19940;-71
2023/12/15 02:32:31;;;;;;;;;;;4.60;99.90;;;;;;5033122;28;20686;-71
2023/12/15 02:34:57;;;;;;;;;;;4.50;99.90;;;;;;5025280;28;19948;-71
2023/12/15 02:37:22;;;;;;;;;;;4.30;99.90;;;;;;5018172;28;19942;-70
2023/12/15 02:39:48;;;;;;;;;;;4.30;99.90;;;;;;5027503;28;19957;-70
2023/12/15 02:42:13;;;;;;;;;;;4.20;99.90;;;;;;5027609;28;19949;-66
2023/12/15 02:44:38;;;;;;;;;;;4.10;99.90;;;;;;5030603;28;20898;-66
2023/12/15 02:47:04;;;;;;;;;;;4.10;99.90;;;;;;5031109;28;19971;-66
2023/12/15 02:49:29;;;;;;;;;;;4.00;99.90;;;;;;5026996;28;19949;-66
2023/12/15 02:51:55;;;;;;;;;;;4.10;99.90;;;;;;5024856;28;19973;-66
2023/12/15 02:54:21;;;;;;;;;;;4.10;99.90;;;;;;5022648;28;20317;-66
2023/12/15 02:56:46;;;;;;;;;;;4.10;99.90;;;;;;5025471;28;19944;-67
2023/12/15 02:59:11;;;;;;;;;;;3.90;99.90;;;;;;5021000;28;19958;-71
2023/12/15 03:01:37;;;;;;;;;;;3.80;99.90;;;;;;5022589;28;20379;-71
2023/12/15 03:04:03;;;;;;;;;;;3.80;99.90;;;;;;5036423;28;19969;-71
2023/12/15 03:06:28;;;;;;;;;;;3.80;99.90;;;;;;5033882;28;19964;-71
2023/12/15 03:08:53;;;;;;;;;;;3.90;99.90;;;;;;5032124;28;19959;-71
2023/12/15 03:11:19;;;;;;;;;;;4.00;99.90;;;;;;5029140;28;19985;-70
2023/12/15 03:13:45;;;;;;;;;;;4.20;99.90;;;;;;5028448;28;19950;-71
2023/12/15 03:16:11;;;;;;;;;;;4.20;99.90;;;;;;4993620;28;20022;-70
2023/12/15 03:18:37;;;;;;;;;;;4.20;99.90;;;;;;5010361;28;19952;-66
2023/12/15 03:21:02;;;;;;;;;;;4.30;99.90;;;;;;5016718;28;19952;-64
2023/12/15 03:23:28;;;;;;;;;;;4.30;99.90;;;;;;5026160;28;19949;-65
2023/12/15 03:25:54;;;;;;;;;;;4.30;99.90;;;;;;5020992;28;20647;-65
2023/12/15 03:28:19;;;;;;;;;;;4.40;99.90;;;;;;5017209;28;19949;-64
2023/12/15 03:30:45;;;;;;;;;;;4.40;99.90;;;;;;5013705;28;19941;-64
2023/12/15 03:33:10;;;;;;;;;;;4.40;99.90;;;;;;5018107;28;20706;-65
2023/12/15 03:35:36;;;;;;;;;;;4.70;99.90;;;;;;5020961;28;19992;-71
2023/12/15 03:38:02;;;;;;;;;;;4.80;99.90;;;;;;5023882;28;19949;-71
2023/12/15 03:40:28;;;;;;;;;;;4.80;99.90;;;;;;5030358;28;19944;-70
2023/12/15 03:42:53;;;;;;;;;;;4.80;99.90;;;;;;5008980;28;20923;-70
2023/12/15 03:45:19;;;;;;;;;;;4.80;99.90;;;;;;5007836;28;19957;-70
2023/12/15 03:47:44;;;;;;;;;;;4.60;99.90;;;;;;5015548;28;19954;-70
2023/12/15 03:50:10;;;;;;;;;;;4.50;99.90;;;;;;5025527;28;19948;-70
2023/12/15 03:52:35;;;;;;;;;;;4.40;99.90;;;;;;5013670;28;23852;-70
2023/12/15 03:55:01;;;;;;;;;;;4.40;99.90;;;;;;5029910;28;19957;-70
2023/12/15 03:57:26;;;;;;;;;;;4.40;99.90;;;;;;5023496;28;20532;-71
2023/12/15 03:59:52;;;;;;;;;;;4.40;99.90;;;;;;5022053;28;20639;-71
2023/12/15 04:02:20;;;;;;;;;;;4.40;99.90;;;;;;5022215;28;19969;-71
2023/12/15 04:04:46;;;;;;;;;;;4.40;99.90;;;;;;5020014;28;20419;-71
2023/12/15 04:07:11;;;;;;;;;;;4.60;99.90;;;;;;5024679;28;19963;-71
2023/12/15 04:09:37;;;;;;;;;;;4.60;99.90;;;;;;5016195;28;19966;-70
2023/12/15 04:12:03;;;;;;;;;;;4.50;99.90;;;;;;5016014;28;20091;-71
2023/12/15 04:14:29;;;;;;;;;;;4.50;99.90;;;;;;5013903;28;20078;-65
2023/12/15 04:16:54;;;;;;;;;;;4.50;99.90;;;;;;5008885;28;19994;-65
2023/12/15 04:19:20;;;;;;;;;;;4.50;99.90;;;;;;5013266;28;20032;-65
2023/12/15 04:21:45;;;;;;;;;;;4.50;99.90;;;;;;5009442;28;20458;-65
2023/12/15 04:24:11;;;;;;;;;;;4.40;99.90;;;;;;5008358;28;19947;-65
2023/12/15 04:26:36;;;;;;;;;;;4.40;99.90;;;;;;5013480;28;19991;-65
2023/12/15 04:29:02;;;;;;;;;;;4.30;99.90;;;;;;5008484;28;20380;-65
2023/12/15 04:31:28;;;;;;;;;;;4.40;99.90;;;;;;5011595;28;20341;-65
2023/12/15 04:33:53;;;;;;;;;;;4.30;99.90;;;;;;5018049;28;19950;-65
2023/12/15 04:36:19;;;;;;;;;;;4.40;99.90;;;;;;5010794;28;20078;-65
2023/12/15 04:38:45;;;;;;;;;;;4.30;99.90;;;;;;5015199;28;19959;-65
2023/12/15 04:41:20;;;;;;;;;;;4.40;99.90;;;;;;5016165;28;19943;-65
2023/12/15 04:43:46;;;;;;;;;;;4.50;99.90;;;;;;5014869;28;20192;-65
2023/12/15 04:46:12;;;;;;;;;;;4.70;99.90;;;;;;5014116;28;20435;-65
2023/12/15 04:48:37;;;;;;;;;;;4.80;99.90;;;;;;5019498;28;20257;-65
2023/12/15 04:51:03;;;;;;;;;;;4.90;99.90;;;;;;5015532;28;20046;-70
2023/12/15 04:53:29;;;;;;;;;;;5.00;99.90;;;;;;5023248;28;19999;-71
2023/12/15 04:55:54;;;;;;;;;;;5.20;99.90;;;;;;5024413;28;19948;-71
2023/12/15 04:58:20;;;;;;;;;;;5.30;99.90;;;;;;5017099;28;19944;-71
2023/12/15 05:00:45;;;;;;;;;;;5.50;99.90;;;;;;5014910;28;19943;-71
2023/12/15 05:03:11;;;;;;;;;;;5.60;99.90;;;;;;5023255;28;20561;-71
2023/12/15 05:05:36;;;;;;;;;;;5.60;99.90;;;;;;5017979;28;19948;-71
2023/12/15 05:08:02;;;;;;;;;;;5.60;99.90;;;;;;5025531;28;20500;-71
2023/12/15 05:10:27;;;;;;;;;;;5.50;99.90;;;;;;5017306;28;20012;-71
2023/12/15 05:12:53;;;;;;;;;;;5.50;99.90;;;;;;5026844;28;19960;-71
2023/12/15 05:15:18;;;;;;;;;;;5.60;99.90;;;;;;5031006;28;20006;-71
2023/12/15 05:17:44;;;;;;;;;;;5.60;99.90;;;;;;5022491;28;19947;-71
2023/12/15 05:20:10;;;;;;;;;;;5.70;99.90;;;;;;5026138;28;20336;-71
2023/12/15 05:22:35;;;;;;;;;;;5.60;99.90;;;;;;5031593;28;19950;-71
2023/12/15 05:25:01;;;;;;;;;;;5.60;99.90;;;;;;5017461;28;19944;-71
2023/12/15 05:27:26;;;;;;;;;;;5.50;99.90;;;;;;5031551;28;20385;-72
2023/12/15 05:29:52;;;;;;;;;;;5.60;99.90;;;;;;5028382;28;19991;-72
2023/12/15 05:32:17;;;;;;;;;;;5.70;99.90;;;;;;5025720;28;19966;-71
2023/12/15 05:34:43;;;;;;;;;;;5.70;99.90;;;;;;5024844;28;19940;-71
2023/12/15 05:37:09;;;;;;;;;;;5.80;99.90;;;;;;5026943;28;19936;-71
2023/12/15 05:39:34;;;;;;;;;;;5.70;99.90;;;;;;5030522;28;20292;-72
2023/12/15 05:42:00;;;;;;;;;;;5.70;99.90;;;;;;5028081;28;19959;-71
2023/12/15 05:44:25;;;;;;;;;;;5.70;99.90;;;;;;5016888;28;19939;-71
2023/12/15 05:46:51;;;;;;;;;;;5.70;99.90;;;;;;5021188;28;19970;-71
2023/12/15 05:49:16;;;;;;;;;;;5.80;99.90;;;;;;5023769;28;19947;-71
2023/12/15 05:51:48;;;;;;;;;;;5.80;99.90;;;;;;5021039;28;19951;-72
2023/12/15 05:54:14;;;;;;;;;;;5.80;99.90;;;;;;5018271;28;20694;-71
2023/12/15 05:56:39;;;;;;;;;;;5.70;99.90;;;;;;5020567;28;20083;-71
2023/12/15 05:59:05;;;;;;;;;;;5.70;99.90;;;;;;5007906;28;20062;-71
2023/12/15 06:01:30;;;;;;;;;;;5.90;99.90;;;;;;5013764;28;19948;-71
2023/12/15 06:03:56;;;;;;;;;;;5.80;99.90;;;;;;5014707;28;20719;-65
2023/12/15 06:06:21;;;;;;;;;;;5.70;99.90;;;;;;5011648;28;19972;-65
2023/12/15 06:08:48;;;;;;;;;;;5.80;99.90;;;;;;5009642;28;19940;-66
2023/12/15 06:11:13;;;;;;;;;;;5.80;99.90;;;;;;5012306;28;19964;-65
2023/12/15 06:13:39;;;;;;;;;;;5.90;99.90;;;;;;5013774;28;19944;-65
2023/12/15 06:16:05;;;;;;;;;;;5.90;99.90;;;;;;5014638;28;19943;-65
2023/12/15 06:18:30;;;;;;;;;;;5.80;99.90;;;;;;5006868;28;19986;-65
2023/12/15 06:20:56;;;;;;;;;;;5.80;99.90;;;;;;5011352;28;19994;-65
2023/12/15 06:23:21;;;;;;;;;;;5.60;99.90;;;;;;5006768;28;20408;-65
2023/12/15 06:25:47;;;;;;;;;;;5.50;99.90;;;;;;5003235;28;19961;-65
2023/12/15 06:28:12;;;;;;;;;;;5.50;99.90;;;;;;5014575;28;20008;-65
2023/12/15 06:30:38;;;;;;;;;;;5.50;99.90;;;;;;5012470;28;19960;-65
2023/12/15 06:33:06;;;;;;;;;;;5.60;99.90;;;;;;5010877;28;20454;-65
2023/12/15 06:35:32;;;;;;;;;;;5.70;99.90;;;;;;5018589;28;20487;-65
2023/12/15 06:37:57;;;;;;;;;;;5.80;99.90;;;;;;5025136;28;20011;-65
2023/12/15 06:40:23;;;;;;;;;;;5.90;99.90;;;;;;5028192;28;20360;-65
2023/12/15 06:42:48;;;;;;;;;;;5.90;99.90;;;;;;5029537;28;20034;-65
2023/12/15 06:45:14;;;;;;;;;;;6.00;99.90;;;;;;5029904;28;19942;-65
2023/12/15 06:47:39;;;;;;;;;;;6.10;99.90;;;;;;5036122;28;20064;-65
2023/12/15 06:50:05;;;;;;;;;;;6.10;99.90;;;;;;5041658;28;19943;-65
2023/12/15 06:52:33;;;;;;;;;;;6.10;99.90;;;;;;5038455;28;20518;-65
2023/12/15 06:54:59;;;;;;;;;;;5.80;99.90;;;;;;5036924;28;20347;-65
2023/12/15 06:57:24;;;;;;;;;;;5.70;99.90;;;;;;5028154;28;20730;-65
2023/12/15 06:59:50;;;;;;;;;;;5.70;99.90;;;;;;5040896;28;19958;-65
2023/12/15 07:02:15;;;;;;;;;;;5.60;99.90;;;;;;5034089;28;19966;-65
2023/12/15 07:04:41;;;;;;;;;;;5.60;99.90;;;;;;5038083;28;20310;-65
2023/12/15 07:07:06;;;;;;;;;;;5.50;99.90;;;;;;5032831;28;19969;-64
2023/12/15 07:09:32;;;;;;;;;;;5.30;99.90;;;;;;5030349;28;20415;-65
2023/12/15 07:11:58;;;;;;;;;;;5.30;99.90;;;;;;5028400;28;19965;-65
2023/12/15 07:14:23;;;;;;;;;;;5.40;99.90;;;;;;5039380;28;19984;-66
2023/12/15 07:16:49;;;;;;;;;;;5.40;99.90;;;;;;5030217;28;20377;-65
2023/12/15 07:19:14;;;;;;;;;;;5.40;99.90;;;;;;5027094;28;19938;-65
2023/12/15 07:21:40;;;;;;;;;;;5.40;99.90;;;;;;5039099;28;19947;-65
2023/12/15 07:24:05;;;;;;;;;;;5.40;99.90;;;;;;5034493;28;20030;-65
2023/12/15 07:26:31;;;;;;;;;;;5.50;99.90;;;;;;5035694;28;19967;-65
2023/12/15 07:28:57;;;;;;;;;;;5.40;99.90;;;;;;5031211;28;20424;-65
2023/12/15 07:31:22;;;;;;;;;;;5.50;99.90;;;;;;5030447;28;20307;-65
2023/12/15 07:33:48;;;;;;;;;;;5.50;99.90;;;;;;5036470;28;19946;-65
2023/12/15 07:36:13;;;;;;;;;;;5.50;99.90;;;;;;5035120;28;20894;-65
2023/12/15 07:38:39;;;;;;;;;;;5.40;99.90;;;;;;5038063;28;20030;-65
2023/12/15 07:41:06;;;;;;;;;;;5.40;99.90;;;;;;5037458;28;20034;-65
2023/12/15 07:43:31;;;;;;;;;;;5.40;99.90;;;;;;5042825;28;19944;-65
2023/12/15 07:45:57;;;;;;;;;;;5.40;99.90;;;;;;5042696;28;19964;-65
2023/12/15 07:48:22;;;;;;;;;;;5.50;99.90;;;;;;5040796;28;20040;-65
2023/12/15 07:50:48;;;;;;;;;;;5.60;99.90;;;;;;5015291;28;19944;-65
2023/12/15 07:53:13;;;;;;;;;;;5.80;99.90;;;;;;5040740;28;20074;-65
2023/12/15 07:55:39;;;;;;;;;;;5.80;99.90;;;;;;5043479;28;20001;-65
2023/12/15 07:58:08;;;;;;;;;;;5.80;99.90;;;;;;5029330;28;19987;-65
2023/12/15 08:00:33;;;;;;;;;;;5.70;99.90;;;;;;5036079;28;19976;-65
2023/12/15 08:02:59;;;;;;;;;;;5.70;99.90;;;;;;5027981;28;20059;-65
2023/12/15 08:05:24;;;;;;;;;;;5.60;99.90;;;;;;5022206;28;19947;-65
2023/12/15 08:07:49;;;;;;;;;;;5.50;99.90;;;;;;5031525;28;20087;-65
2023/12/15 08:10:15;;;;;;;;;;;5.60;99.90;;;;;;5029481;28;19950;-65
2023/12/15 08:12:40;;;;;;;;;;;5.60;99.90;;;;;;5031242;28;20784;-65
2023/12/15 08:15:06;;;;;;;;;;;5.60;99.90;;;;;;5034131;28;19960;-65
2023/12/15 08:17:33;;;;;;;;;;;5.70;99.90;;;;;;5026638;28;20242;-65
2023/12/15 08:19:59;;;;;;;;;;;5.70;99.90;;;;;;5031304;28;21806;-65
2023/12/15 08:22:24;;;;;;;;;;;5.70;99.90;;;;;;5023415;28;19952;-65
2023/12/15 08:24:50;;;;;;;;;;;5.70;99.90;;;;;;5029780;28;19973;-65
2023/12/15 08:27:16;;;;;;;;;;;5.70;99.90;;;;;;5031773;28;20080;-65
2023/12/15 08:29:43;;;;;;;;;;;5.60;99.90;;;;;;5030850;28;19946;-65
2023/12/15 08:32:08;;;;;;;;;;;5.70;99.90;;;;;;5023193;28;20039;-65
2023/12/15 08:34:34;;;;;;;;;;;5.70;99.90;;;;;;5026954;28;19963;-65
2023/12/15 08:36:59;;;;;;;;;;;5.80;99.90;;;;;;5029186;28;20018;-65
2023/12/15 08:39:25;;;;;;;;;;;5.80;99.90;;;;;;5032286;28;19939;-65
2023/12/15 08:41:50;;;;;;;;;;;5.80;99.90;;;;;;5025137;28;20468;-65
2023/12/15 08:44:16;;;;;;;;;;;5.90;99.90;;;;;;5036550;28;19947;-65
2023/12/15 08:46:42;;;;;;;;;;;5.90;99.90;;;;;;5033423;28;19971;-65
2023/12/15 08:49:07;;;;;;;;;;;5.90;99.90;;;;;;5025655;28;19944;-65
2023/12/15 08:51:33;;;;;;;;;;;6.00;99.90;;;;;;5018686;28;19937;-65
2023/12/15 08:53:58;;;;;;;;;;;6.00;99.90;;;;;;5023701;28;19997;-64
2023/12/15 08:56:24;;;;;;;;;;;6.10;99.90;;;;;;5023669;28;19938;-65
2023/12/15 08:58:49;;;;;;;;;;;6.20;99.90;;;;;;5028175;28;19979;-65
2023/12/15 09:01:15;;;;;;;;;;;6.30;99.90;;;;;;5035400;28;19937;-65
2023/12/15 09:03:41;;;;;;;;;;;6.40;99.90;;;;;;5021746;28;20086;-65
2023/12/15 09:06:10;;;;;;;;;;;6.40;99.90;;;;;;5022502;28;19989;-66
2023/12/15 09:08:36;;;;;;;;;;;6.30;99.90;;;;;;5038767;28;19963;-64
2023/12/15 09:11:02;;;;;;;;;;;6.20;99.90;;;;;;5022070;28;20415;-65
2023/12/15 09:13:27;;;;;;;;;;;6.20;99.90;;;;;;5021995;28;20041;-65
2023/12/15 09:15:53;;;;;;;;;;;6.10;99.90;;;;;;5022359;28;20005;-65
2023/12/15 09:18:18;;;;;;;;;;;6.00;99.90;;;;;;5031849;28;19945;-65
2023/12/15 09:20:44;;;;;;;;;;;5.90;99.90;;;;;;5028688;28;19936;-65
2023/12/15 09:23:09;;;;;;;;;;;5.90;99.90;;;;;;5032414;28;19983;-65
2023/12/15 09:25:35;;;;;;;;;;;5.80;99.90;;;;;;5031794;28;19945;-65
2023/12/15 09:28:03;;;;;;;;;;;5.80;99.90;;;;;;5030346;28;19952;-65
2023/12/15 09:30:29;;;;;;;;;;;5.90;99.90;;;;;;5021512;28;20041;-65
2023/12/15 09:32:54;;;;;;;;;;;5.80;99.90;;;;;;5017402;28;19949;-65
2023/12/15 09:35:20;;;;;;;;;;;5.90;99.90;;;;;;5021823;28;19944;-65
2023/12/15 09:37:46;;;;;;;;;;;6.00;99.90;;;;;;5026441;28;19956;-65
2023/12/15 09:40:13;;;;;;;;;;;6.10;99.90;;;;;;5021070;28;20038;-65
2023/12/15 09:42:38;;;;;;;;;;;6.10;99.90;;;;;;5008163;28;19979;-65
2023/12/15 09:45:04;;;;;;;;;;;6.20;99.90;;;;;;5023058;28;20051;-70
2023/12/15 09:47:31;;;;;;;;;;;6.30;99.90;;;;;;5020840;28;20025;-71
2023/12/15 09:49:59;;;;;;;;;;;6.40;99.90;;;;;;5023815;28;21541;-71
2023/12/15 09:52:25;;;;;;;;;;;6.50;99.90;;;;;;5021410;28;20003;-71
2023/12/15 09:54:51;;;;;;;;;;;6.50;99.90;;;;;;5009676;28;20366;-72
2023/12/15 09:57:17;;;;;;;;;;;6.50;99.90;;;;;;5032510;28;19938;-72
2023/12/15 09:59:43;;;;;;;;;;;6.40;99.90;;;;;;5024269;28;21168;-71
2023/12/15 10:02:08;;;;;;;;;;;6.20;99.90;;;;;;5028145;28;20076;-65
2023/12/15 10:04:34;;;;;;;;;;;6.00;99.90;;;;;;5029000;28;20297;-65
2023/12/15 10:06:59;;;;;;;;;;;6.00;99.90;;;;;;5034237;28;19965;-64
2023/12/15 10:09:25;;;;;;;;;;;6.10;99.90;;;;;;5027827;28;19957;-65
2023/12/15 10:11:50;;;;;;;;;;;6.20;99.90;;;;;;5029575;28;19969;-65
2023/12/15 10:14:19;;;;;;;;;;;6.30;99.90;;;;;;5019926;28;19983;-65
2023/12/15 10:16:45;;;;;;;;;;;6.40;99.90;;;;;;5026022;28;20657;-66
2023/12/15 10:19:10;;;;;;;;;;;6.50;99.90;;;;;;5030875;28;20416;-66
2023/12/15 10:21:36;;;;;;;;;;;6.60;99.90;;;;;;5025659;28;20052;-65
2023/12/15 10:24:21;;;;;;;;;;;6.70;99.90;;;;;;5031467;28;19954;-65
2023/12/15 10:26:47;;;;;;;;;;;6.80;99.90;;;;;;5033727;28;19961;-65
2023/12/15 10:29:13;;;;;;;;;;;6.90;99.90;;;;;;5033440;28;19997;-65
2023/12/15 10:31:38;;;;;;;;;;;6.90;99.90;;;;;;5026056;28;19939;-65
2023/12/15 10:34:04;;;;;;;;;;;6.90;99.90;;;;;;5027632;28;19976;-64
2023/12/15 10:36:33;;;;;;;;;;;6.90;99.90;;;;;;5034800;28;19951;-65
2023/12/15 10:39:00;;;;;;;;;;;7.00;99.90;;;;;;5033449;28;20014;-66
2023/12/15 10:41:30;;;;;;;;;;;7.00;99.90;;;;;;5039814;28;20189;-65
2023/12/15 10:43:57;;;;;;;;;;;6.90;99.90;;;;;;5028788;28;19973;-65
2023/12/15 10:46:22;;;;;;;;;;;6.90;99.90;;;;;;5028802;28;19969;-65
2023/12/15 10:48:49;;;;;;;;;;;6.90;99.90;;;;;;5032422;28;19948;-65
2023/12/15 10:51:15;;;;;;;;;;;7.00;99.90;;;;;;5029602;28;19946;-64
2023/12/15 10:53:41;;;;;;;;;;;7.00;99.90;;;;;;5023224;28;19948;-65
2023/12/15 10:56:06;;;;;;;;;;;6.90;99.90;;;;;;5028649;28;19940;-71
2023/12/15 10:58:32;;;;;;;;;;;6.80;99.90;;;;;;5027401;28;20471;-71
2023/12/15 11:00:58;;;;;;;;;;;6.80;99.90;;;;;;5026559;28;19955;-71
2023/12/15 11:03:24;;;;;;;;;;;6.90;99.90;;;;;;5032458;28;20438;-71
2023/12/15 11:05:49;;;;;;;;;;;6.90;99.90;;;;;;5032953;28;19942;-70
2023/12/15 11:08:15;;;;;;;;;;;7.00;99.90;;;;;;5036741;28;19950;-71
2023/12/15 11:10:40;;;;;;;;;;;7.10;99.90;;;;;;5034286;28;19950;-70
2023/12/15 11:13:25;;;;;;;;;;;7.20;99.90;;;;;;5024357;28;20142;-70
2023/12/15 11:15:50;;;;;;;;;;;7.30;99.90;;;;;;5027017;28;19961;-70
2023/12/15 11:18:16;;;;;;;;;;;7.40;99.90;;;;;;5023369;28;20430;-71
2023/12/15 11:20:42;;;;;;;;;;;7.50;99.90;;;;;;5025163;28;19991;-70
2023/12/15 11:23:10;;;;;;;;;;;7.40;99.90;;;;;;5036389;28;20006;-70
2023/12/15 11:25:37;;;;;;;;;;;7.50;99.90;;;;;;5034551;28;19945;-70
2023/12/15 11:28:03;;;;;;;;;;;7.50;99.90;;;;;;5040486;28;20329;-70
2023/12/15 11:30:34;;;;;;;;;;;7.50;99.90;;;;;;5032898;28;19956;-70
2023/12/15 11:33:00;;;;;;;;;;;7.50;99.90;;;;;;5038168;28;19939;-64
2023/12/15 11:35:26;;;;;;;;;;;7.50;99.90;;;;;;5032808;28;19939;-70
2023/12/15 11:37:52;;;;;;;;;;;7.60;99.90;;;;;;5033534;28;19949;-70
2023/12/15 11:40:17;;;;;;;;;;;7.60;99.90;;;;;;5040409;28;19933;-69
2023/12/15 11:42:45;;;;;;;;;;;7.60;99.90;;;;;;5033588;28;19941;-70
2023/12/15 11:45:11;;;;;;;;;;;7.60;99.90;;;;;;5035498;28;19942;-70
2023/12/15 11:47:37;;;;;;;;;;;7.60;99.90;;;;;;5031041;28;19975;-70
2023/12/15 11:50:04;;;;;;;;;;;7.70;99.90;;;;;;5040281;28;19951;-69
2023/12/15 11:52:29;;;;;;;;;;;7.80;99.90;;;;;;5036875;28;19938;-70
2023/12/15 11:54:55;;;;;;;;;;;7.70;99.90;;;;;;5036232;28;19942;-70
2023/12/15 11:57:20;;;;;;;;;;;7.60;99.90;;;;;;5032974;28;19993;-70
2023/12/15 11:59:46;;;;;;;;;;;7.40;99.90;;;;;;5037595;28;20397;-70
2023/12/15 12:02:12;;;;;;;;;;;7.40;99.90;;;;;;5031108;28;19999;-70
2023/12/15 12:04:41;;;;;;;;;;;7.40;99.90;;;;;;5035502;28;19969;-71
2023/12/15 12:07:07;;;;;;;;;;;7.40;99.90;;;;;;5033881;28;19962;-71
2023/12/15 12:09:32;;;;;;;;;;;7.40;99.90;;;;;;5035984;28;19944;-71
2023/12/15 12:11:58;;;;;;;;;;;7.40;99.90;;;;;;5033310;28;19954;-64
2023/12/15 12:14:24;;;;;;;;;;;7.50;99.90;;;;;;5038211;28;19945;-64
2023/12/15 12:16:51;;;;;;;;;;;7.50;99.90;;;;;;5032921;28;19945;-64
2023/12/15 12:19:16;;;;;;;;;;;7.50;99.90;;;;;;5033152;28;19936;-65
2023/12/15 12:21:42;;;;;;;;;;;7.40;99.90;;;;;;5033379;28;20549;-65
2023/12/15 12:24:07;;;;;;;;;;;7.40;99.90;;;;;;5024469;28;19944;-65
2023/12/15 12:26:33;;;;;;;;;;;7.40;99.90;;;;;;5035026;28;19990;-65
2023/12/15 12:29:00;;;;;;;;;;;7.40;99.90;;;;;;5033915;28;19941;-64
2023/12/15 12:31:25;;;;;;;;;;;7.50;99.90;;;;;;5031387;28;19948;-70
2023/12/15 12:33:51;;;;;;;;;;;7.50;99.90;;;;;;5032139;28;19946;-70
2023/12/15 12:36:17;;;;;;;;;;;7.50;99.90;;;;;;5031509;28;20249;-70
2023/12/15 12:38:46;;;;;;;;;;;7.60;99.90;;;;;;5029979;28;20656;-71
2023/12/15 12:41:12;;;;;;;;;;;7.60;99.90;;;;;;5032078;28;19936;-69
2023/12/15 12:43:38;;;;;;;;;;;7.60;99.90;;;;;;5030093;28;20038;-70
2023/12/15 12:46:04;;;;;;;;;;;7.40;99.90;;;;;;5039391;28;19962;-70
2023/12/15 12:48:30;;;;;;;;;;;7.30;99.90;;;;;;5033320;28;20303;-70
2023/12/15 12:50:55;;;;;;;;;;;7.20;99.90;;;;;;5036621;28;19941;-70
2023/12/15 12:53:21;;;;;;;;;;;7.10;99.90;;;;;;5034800;28;20441;-70
2023/12/15 12:55:46;;;;;;;;;;;6.90;99.90;;;;;;5038262;28;19964;-69
2023/12/15 12:58:12;;;;;;;;;;;6.80;99.90;;;;;;5038537;28;20566;-69
2023/12/15 13:00:37;;;;;;;;;;;6.70;99.90;;;;;;5035519;28;20490;-69
2023/12/15 13:03:04;;;;;;;;;;;6.70;99.90;;;;;;5029613;28;19967;-69
2023/12/15 13:05:29;;;;;;;;;;;6.70;99.90;;;;;;5031857;28;20010;-64
2023/12/15 13:07:56;;;;;;;;;;;6.70;99.90;;;;;;5034789;28;20444;-70
2023/12/15 13:10:22;;;;;;;;;;;6.70;99.90;;;;;;5033451;28;19944;-70
2023/12/15 13:12:54;;;;;;;;;;;6.70;99.90;;;;;;5034349;28;20429;-70
2023/12/15 13:15:21;;;;;;;;;;;6.70;99.90;;;;;;5034430;28;19942;-70
2023/12/15 13:17:46;;;;;;;;;;;6.80;99.90;;;;;;5035139;28;19944;-70
2023/12/15 13:20:12;;;;;;;;;;;6.90;99.90;;;;;;5040894;28;19936;-70
2023/12/15 13:22:37;;;;;;;;;;;6.90;99.90;;;;;;5032745;28;19949;-69
2023/12/15 13:25:07;;;;;;;;;;;6.90;99.90;;;;;;5032907;28;19950;-70
2023/12/15 13:27:32;;;;;;;;;;;7.10;99.90;;;;;;5034500;28;19967;-68
2023/12/15 13:29:58;;;;;;;;;;;7.70;99.90;;;;;;5036688;28;19945;-69
2023/12/15 13:32:24;;;;;;;;;;;8.20;99.90;;;;;;5029610;28;20600;-70
2023/12/15 13:34:49;;;;;;;;;;;8.30;99.90;;;;;;5032829;28;19998;-70
2023/12/15 13:37:15;;;;;;;;;;;8.30;99.90;;;;;;5024870;28;20418;-71
2023/12/15 13:39:41;;;;;;;;;;;8.40;99.90;;;;;;5029209;28;20539;-70
2023/12/15 13:42:07;;;;;;;;;;;8.60;99.90;;;;;;5031820;28;19937;-70
2023/12/15 13:44:32;;;;;;;;;;;8.80;99.90;;;;;;5031343;28;20007;-70
2023/12/15 13:46:58;;;;;;;;;;;8.80;99.90;;;;;;5028871;28;19967;-70
2023/12/15 13:49:24;;;;;;;;;;;8.80;99.90;;;;;;5029867;28;19956;-70
2023/12/15 13:51:50;;;;;;;;;;;9.10;99.90;;;;;;5032147;28;19964;-70
2023/12/15 13:54:16;;;;;;;;;;;9.80;99.90;;;;;;5027915;28;19939;-70
2023/12/15 13:56:42;;;;;;;;;;;10.40;99.90;;;;;;5037203;28;20403;-69
2023/12/15 13:59:07;;;;;;;;;;;10.60;99.90;;;;;;5031561;28;19951;-69
2023/12/15 14:01:33;;;;;;;;;;;10.40;99.90;;;;;;5019543;28;20078;-64
2023/12/15 14:03:59;;;;;;;;;;;10.00;99.90;;;;;;5026927;28;19975;-70
2023/12/15 14:06:24;;;;;;;;;;;9.50;99.90;;;;;;5028601;28;19971;-70
2023/12/15 14:08:50;;;;;;;;;;;8.80;99.90;;;;;;5022725;28;20393;-69
2023/12/15 14:11:16;;;;;;;;;;;8.30;99.90;;;;;;5031974;28;20033;-70
2023/12/15 14:13:41;;;;;;;;;;;7.80;99.90;;;;;;5027999;28;20541;-70
2023/12/15 14:16:07;;;;;;;;;;;7.40;99.90;;;;;;5027746;28;19945;-70
2023/12/15 14:18:33;;;;;;;;;;;7.20;99.90;;;;;;5022388;28;19997;-70
2023/12/15 14:20:58;;;;;;;;;;;7.00;99.90;;;;;;5026985;28;19990;-70
2023/12/15 14:23:24;;;;;;;;;;;6.90;99.90;;;;;;5023750;28;20175;-70